createdAt,value
2023-10-04T00:00:30.168Z,2.30
2023-10-04T00:02:59.961Z,2.03
2023-10-04T00:05:29.394Z,2.10
2023-10-04T00:07:58.369Z,2.00
2023-10-04T00:10:26.775Z,1.97
2023-10-04T00:12:55.710Z,1.80
2023-10-04T00:15:27.413Z,1.80
2023-10-04T00:17:56.249Z,1.70
2023-10-04T00:20:33.025Z,2.03
2023-10-04T00:23:01.473Z,2.00
2023-10-04T00:25:29.754Z,1.90
2023-10-04T00:27:58.261Z,2.23
2023-10-04T00:30:27.582Z,2.10
2023-10-04T00:32:56.342Z,1.90
2023-10-04T00:35:26.676Z,2.10
2023-10-04T00:37:57.857Z,1.77
2023-10-04T00:40:27.180Z,2.10
2023-10-04T00:42:56.973Z,2.00
2023-10-04T00:45:25.643Z,2.10
2023-10-04T00:47:57.723Z,2.00
2023-10-04T00:50:30.695Z,2.00
2023-10-04T00:53:02.491Z,2.00
2023-10-04T00:55:32.260Z,2.40
2023-10-04T00:58:02.373Z,2.40
2023-10-04T01:00:30.638Z,1.93
2023-10-04T01:02:59.343Z,2.27
2023-10-04T01:05:29.907Z,1.90
2023-10-04T01:07:58.779Z,2.10
2023-10-04T01:10:32.280Z,2.17
2023-10-04T01:13:01.387Z,2.20
2023-10-04T01:15:32.890Z,2.20
2023-10-04T01:18:02.007Z,1.97
2023-10-04T01:20:32.105Z,2.13
2023-10-04T01:23:03.093Z,1.70
2023-10-04T01:25:32.357Z,1.90
2023-10-04T01:28:01.628Z,2.20
2023-10-04T01:30:30.814Z,2.00
2023-10-04T01:33:01.459Z,2.27
2023-10-04T01:35:30.156Z,1.70
2023-10-04T01:37:58.372Z,1.93
2023-10-04T01:40:32.702Z,1.70
2023-10-04T01:43:01.339Z,1.90
2023-10-04T01:45:29.785Z,2.20
2023-10-04T01:47:58.110Z,1.70
2023-10-04T01:50:26.368Z,2.07
2023-10-04T01:52:54.612Z,1.90
2023-10-04T01:55:23.321Z,1.87
2023-10-04T01:57:53.306Z,1.90
2023-10-04T02:00:23.740Z,2.47
2023-10-04T02:02:53.084Z,1.97
2023-10-04T02:05:29.714Z,1.67
2023-10-04T02:07:59.008Z,2.00
2023-10-04T02:10:27.663Z,1.90
2023-10-04T02:12:57.399Z,2.20
2023-10-04T02:15:26.102Z,2.00
2023-10-04T02:17:57.856Z,2.87
2023-10-04T02:20:26.906Z,1.93
2023-10-04T02:22:57.275Z,2.10
2023-10-04T02:25:26.061Z,1.70
2023-10-04T02:27:56.878Z,2.20
2023-10-04T02:30:28.054Z,2.30
2023-10-04T02:32:57.034Z,2.10
2023-10-04T02:35:28.808Z,2.53
2023-10-04T02:38:00.579Z,2.30
2023-10-04T02:40:34.146Z,2.00
2023-10-04T02:43:05.102Z,2.10
2023-10-04T02:45:38.151Z,2.13
2023-10-04T02:48:07.236Z,1.97
2023-10-04T02:50:35.752Z,2.00
2023-10-04T02:53:04.233Z,2.30
2023-10-04T02:55:33.074Z,2.50
2023-10-04T02:58:02.152Z,3.13
2023-10-04T03:00:30.490Z,2.60
2023-10-04T03:03:00.148Z,2.10
2023-10-04T03:05:31.842Z,2.30
2023-10-04T03:08:07.255Z,2.20
2023-10-04T03:10:36.022Z,2.00
2023-10-04T03:13:11.244Z,2.13
2023-10-04T03:15:39.511Z,2.00
2023-10-04T03:18:16.806Z,2.13
2023-10-04T03:20:55.187Z,2.30
2023-10-04T03:23:24.866Z,2.67
2023-10-04T03:25:54.286Z,2.60
2023-10-04T03:28:27.445Z,2.53
2023-10-04T03:30:56.338Z,2.50
2023-10-04T03:33:26.387Z,2.33
2023-10-04T03:35:54.923Z,2.30
2023-10-04T03:38:23.215Z,2.50
2023-10-04T03:40:52.911Z,2.50
2023-10-04T03:43:21.167Z,2.17
2023-10-04T03:45:49.873Z,2.60
2023-10-04T03:48:18.700Z,2.57
2023-10-04T03:50:48.492Z,2.30
2023-10-04T03:53:17.028Z,2.40
2023-10-04T03:55:45.281Z,2.67
2023-10-04T03:58:16.780Z,2.30
2023-10-04T04:00:45.603Z,2.97
2023-10-04T04:03:13.862Z,2.40
2023-10-04T04:05:43.271Z,2.80
2023-10-04T04:08:13.177Z,2.60
2023-10-04T04:10:42.738Z,2.17
2023-10-04T04:13:10.984Z,3.30
2023-10-04T04:15:41.054Z,2.70
2023-10-04T04:18:15.039Z,2.33
2023-10-04T04:20:43.553Z,2.60
2023-10-04T04:23:14.996Z,3.73
2023-10-04T04:25:43.374Z,2.43
2023-10-04T04:28:14.232Z,2.67
2023-10-04T04:30:42.844Z,2.37
2023-10-04T04:33:12.021Z,2.60
2023-10-04T04:35:52.924Z,2.67
2023-10-04T04:38:23.467Z,3.07
2023-10-04T04:40:53.968Z,3.07
2023-10-04T04:43:37.036Z,2.77
2023-10-04T04:46:09.206Z,2.70
2023-10-04T04:48:40.434Z,2.57
2023-10-04T04:51:13.154Z,2.60
2023-10-04T04:53:43.577Z,2.60
2023-10-04T04:56:13.786Z,2.37
2023-10-04T04:58:42.675Z,2.80
2023-10-04T05:01:12.498Z,2.50
2023-10-04T05:03:44.000Z,2.87
2023-10-04T05:06:15.577Z,2.63
2023-10-04T05:08:45.459Z,2.87
2023-10-04T05:11:13.761Z,3.17
2023-10-04T05:13:42.015Z,2.70
2023-10-04T05:16:11.484Z,3.13
2023-10-04T05:18:39.768Z,2.90
2023-10-04T05:21:11.665Z,3.00
2023-10-04T05:23:39.916Z,2.97
2023-10-04T05:26:11.505Z,2.80
2023-10-04T05:28:39.786Z,2.60
2023-10-04T05:31:09.789Z,2.93
2023-10-04T05:33:38.668Z,2.87
2023-10-04T05:36:08.621Z,2.60
2023-10-04T05:38:37.372Z,2.47
2023-10-04T05:41:10.709Z,2.60
2023-10-04T05:43:40.291Z,2.53
2023-10-04T05:46:08.981Z,3.13
2023-10-04T05:48:37.433Z,2.93
2023-10-04T05:51:08.911Z,3.10
2023-10-04T05:53:39.096Z,3.43
2023-10-04T05:56:07.690Z,3.20
2023-10-04T05:58:36.569Z,3.20
2023-10-04T06:01:07.897Z,3.27
2023-10-04T06:03:37.338Z,3.70
2023-10-04T06:06:06.187Z,3.30
2023-10-04T06:08:35.205Z,3.23
2023-10-04T06:11:05.759Z,4.00
2023-10-04T06:13:35.677Z,3.50
2023-10-04T06:16:04.044Z,3.83
2023-10-04T06:18:33.657Z,3.33
2023-10-04T06:21:02.087Z,3.40
2023-10-04T06:23:32.385Z,2.97
2023-10-04T06:26:01.069Z,3.23
2023-10-04T06:28:29.799Z,3.00
2023-10-04T06:30:58.172Z,3.50
2023-10-04T06:33:27.062Z,4.03
2023-10-04T06:35:56.762Z,3.27
2023-10-04T06:38:25.680Z,4.07
2023-10-04T06:40:54.365Z,3.60
2023-10-04T06:43:22.632Z,3.87
2023-10-04T06:45:51.253Z,3.40
2023-10-04T06:48:19.712Z,3.80
2023-10-04T06:50:51.149Z,3.37
2023-10-04T06:53:23.700Z,3.47
2023-10-04T06:55:52.128Z,3.73
2023-10-04T06:58:22.281Z,4.00
2023-10-04T07:00:51.348Z,3.60
2023-10-04T07:03:19.727Z,3.57
2023-10-04T07:05:48.846Z,3.83
2023-10-04T07:08:17.679Z,3.57
2023-10-04T07:10:47.486Z,4.13
2023-10-04T07:13:16.619Z,3.00
2023-10-04T07:15:45.911Z,3.43
2023-10-04T07:18:15.405Z,3.40
2023-10-04T07:20:45.080Z,4.07
2023-10-04T07:23:18.352Z,3.63
2023-10-04T07:25:50.641Z,3.80
2023-10-04T07:28:18.873Z,3.73
2023-10-04T07:30:47.103Z,3.70
2023-10-04T07:33:15.479Z,3.55
2023-10-04T07:35:43.784Z,3.70
2023-10-04T07:38:12.420Z,3.73
2023-10-04T07:40:40.700Z,3.50
2023-10-04T07:43:10.264Z,3.63
2023-10-04T07:45:39.423Z,3.03
2023-10-04T07:48:11.575Z,3.30
2023-10-04T07:50:40.875Z,3.60
2023-10-04T07:53:09.128Z,3.43
2023-10-04T07:55:38.047Z,3.67
2023-10-04T07:58:07.416Z,3.50
2023-10-04T08:00:38.176Z,3.73
2023-10-04T08:03:08.231Z,3.20
2023-10-04T08:05:37.365Z,2.97
2023-10-04T08:08:07.364Z,3.87
2023-10-04T08:10:36.417Z,3.40
2023-10-04T08:13:05.962Z,2.90
2023-10-04T08:15:36.694Z,3.27
2023-10-04T08:18:07.106Z,4.30
2023-10-04T08:20:37.345Z,3.53
2023-10-04T08:23:05.709Z,3.37
2023-10-04T08:25:35.763Z,3.43
2023-10-04T08:28:06.507Z,3.40
2023-10-04T08:30:35.392Z,3.30
2023-10-04T08:33:04.691Z,3.43
2023-10-04T08:35:37.257Z,3.37
2023-10-04T08:38:06.357Z,3.40
2023-10-04T08:40:37.252Z,3.27
2023-10-04T08:43:06.320Z,3.63
2023-10-04T08:45:35.405Z,3.50
2023-10-04T08:48:04.406Z,3.33
2023-10-04T08:50:37.862Z,4.50
2023-10-04T08:53:11.290Z,3.30
2023-10-04T08:55:42.275Z,3.23
2023-10-04T08:58:12.053Z,3.53
2023-10-04T09:00:44.499Z,3.30
2023-10-04T09:03:14.974Z,3.20
2023-10-04T09:05:48.260Z,3.43
2023-10-04T09:08:17.660Z,3.20
2023-10-04T09:10:46.621Z,3.27
2023-10-04T09:13:15.426Z,3.30
2023-10-04T09:15:44.657Z,3.17
2023-10-04T09:18:13.443Z,2.83
2023-10-04T09:20:43.220Z,3.27
2023-10-04T09:23:21.173Z,2.90
2023-10-04T09:25:49.453Z,2.70
2023-10-04T09:28:17.744Z,3.00
2023-10-04T09:30:46.054Z,2.77
2023-10-04T09:33:24.608Z,2.70
2023-10-04T09:35:53.425Z,2.97
2023-10-04T09:38:23.706Z,3.10
2023-10-04T09:40:52.925Z,3.17
2023-10-04T09:43:33.785Z,3.07
2023-10-04T09:46:02.351Z,2.90
2023-10-04T09:48:34.793Z,2.90
2023-10-04T09:51:06.307Z,2.73
2023-10-04T09:53:39.482Z,2.90
2023-10-04T09:56:08.507Z,2.70
2023-10-04T09:58:38.053Z,2.93
2023-10-04T10:01:10.461Z,4.03
2023-10-04T10:03:43.461Z,3.20
2023-10-04T10:06:12.944Z,3.30
2023-10-04T10:08:45.540Z,3.00
2023-10-04T10:11:14.271Z,3.03
2023-10-04T10:13:43.739Z,3.20
2023-10-04T10:16:12.949Z,3.00
2023-10-04T10:18:41.554Z,2.80
2023-10-04T10:21:10.428Z,2.83
2023-10-04T10:23:53.551Z,2.60
2023-10-04T10:26:24.119Z,2.83
2023-10-04T10:28:58.548Z,3.13
2023-10-04T10:31:28.415Z,3.10
2023-10-04T10:33:57.505Z,2.53
2023-10-04T10:36:26.926Z,2.73
2023-10-04T10:38:55.657Z,2.60
2023-10-04T10:41:43.179Z,2.90
2023-10-04T10:44:21.952Z,3.00
2023-10-04T10:46:59.877Z,3.63
2023-10-04T10:49:42.979Z,3.40
2023-10-04T10:52:11.695Z,2.90
2023-10-04T10:54:39.976Z,3.00
2023-10-04T10:57:08.234Z,3.47
2023-10-04T10:59:37.771Z,3.13
2023-10-04T11:02:06.785Z,3.20
2023-10-04T11:04:35.469Z,3.10
2023-10-04T11:07:03.744Z,2.70
2023-10-04T11:09:44.641Z,2.80
2023-10-04T11:12:15.324Z,2.60
2023-10-04T11:14:45.836Z,2.27
2023-10-04T11:17:15.523Z,2.30
2023-10-04T11:19:43.821Z,2.80
2023-10-04T11:22:13.855Z,2.60
2023-10-04T11:24:42.068Z,2.83
2023-10-04T11:27:10.592Z,2.23
2023-10-04T11:29:39.563Z,2.50
2023-10-04T11:32:10.829Z,2.23
2023-10-04T11:34:40.338Z,2.40
2023-10-04T11:37:09.257Z,2.67
2023-10-04T11:39:38.111Z,2.83
2023-10-04T11:42:07.309Z,2.10
2023-10-04T11:44:36.449Z,1.90
2023-10-04T11:47:09.945Z,2.10
2023-10-04T11:49:40.464Z,1.67
2023-10-04T11:52:09.251Z,1.73
2023-10-04T11:54:41.034Z,1.70
2023-10-04T11:57:09.581Z,1.70
2023-10-04T11:59:37.928Z,1.50
2023-10-04T12:02:06.256Z,1.70
2023-10-04T12:04:35.835Z,1.50
2023-10-04T12:07:07.896Z,1.50
2023-10-04T12:09:36.300Z,1.67
2023-10-04T12:12:06.313Z,1.70
2023-10-04T12:14:35.304Z,1.70
2023-10-04T12:17:04.784Z,1.47
2023-10-04T12:19:33.810Z,1.30
2023-10-04T12:22:03.879Z,1.90
2023-10-04T12:24:34.249Z,1.27
2023-10-04T12:27:02.526Z,1.20
2023-10-04T12:29:30.724Z,1.30
2023-10-04T12:31:59.415Z,1.30
2023-10-04T12:34:28.862Z,1.60
2023-10-04T12:36:59.140Z,1.30
2023-10-04T12:39:27.681Z,1.57
2023-10-04T12:42:00.315Z,1.50
2023-10-04T12:44:29.035Z,1.73
2023-10-04T12:46:58.528Z,1.13
2023-10-04T12:49:27.425Z,1.60
2023-10-04T12:51:55.906Z,1.10
2023-10-04T12:54:26.584Z,1.57
2023-10-04T12:56:56.763Z,1.60
2023-10-04T12:59:27.852Z,1.57
2023-10-04T13:01:57.086Z,1.40
2023-10-04T13:04:25.746Z,1.80
2023-10-04T13:06:56.388Z,1.97
2023-10-04T13:09:28.171Z,1.37
2023-10-04T13:11:56.965Z,1.57
2023-10-04T13:14:26.779Z,1.40
2023-10-04T13:16:55.010Z,1.33
2023-10-04T13:19:24.503Z,1.43
2023-10-04T13:21:53.656Z,1.57
2023-10-04T13:24:22.187Z,1.77
2023-10-04T13:26:50.453Z,1.30
2023-10-04T13:29:18.645Z,1.87
2023-10-04T13:31:48.417Z,2.37
2023-10-04T13:34:16.981Z,1.30
2023-10-04T13:36:45.482Z,1.70
2023-10-04T13:39:14.179Z,1.57
2023-10-04T13:41:42.537Z,1.13
2023-10-04T13:44:10.748Z,1.83
2023-10-04T13:46:39.093Z,1.53
2023-10-04T13:49:08.934Z,1.43
2023-10-04T13:51:37.653Z,1.50
2023-10-04T13:54:06.180Z,1.70
2023-10-04T13:56:34.488Z,1.67
2023-10-04T13:59:03.967Z,1.73
2023-10-04T14:01:33.269Z,1.30
2023-10-04T14:04:01.697Z,1.60
2023-10-04T14:06:32.193Z,1.37
2023-10-04T14:09:00.414Z,1.30
2023-10-04T14:11:28.862Z,1.43
2023-10-04T14:13:57.093Z,1.40
2023-10-04T14:16:25.446Z,1.10
2023-10-04T14:18:53.782Z,1.30
2023-10-04T14:21:22.118Z,1.17
2023-10-04T14:23:51.668Z,1.37
2023-10-04T14:26:20.160Z,1.57
2023-10-04T14:28:48.744Z,0.93
2023-10-04T14:31:17.269Z,1.00
2023-10-04T14:33:45.547Z,0.90
2023-10-04T14:36:13.924Z,0.80
2023-10-04T14:38:42.183Z,1.00
2023-10-04T14:41:11.764Z,1.30
2023-10-04T14:43:41.470Z,0.93
2023-10-04T14:46:10.283Z,1.07
2023-10-04T14:48:38.672Z,1.20
2023-10-04T14:51:12.918Z,1.00
2023-10-04T14:53:41.971Z,1.20
2023-10-04T14:56:12.124Z,1.00
2023-10-04T14:58:40.630Z,0.80
2023-10-04T15:01:13.878Z,1.03
2023-10-04T15:03:42.525Z,1.30
2023-10-04T15:06:15.805Z,0.80
2023-10-04T15:08:46.093Z,1.33
2023-10-04T15:11:15.816Z,1.00
2023-10-04T15:13:44.189Z,1.00
2023-10-04T15:16:13.173Z,1.20
2023-10-04T15:18:41.879Z,1.10
2023-10-04T15:21:11.617Z,1.10
2023-10-04T15:23:40.804Z,1.00
2023-10-04T15:26:11.144Z,1.20
2023-10-04T15:28:44.953Z,1.17
2023-10-04T15:31:14.349Z,1.30
2023-10-04T15:33:45.707Z,1.40
2023-10-04T15:36:15.789Z,1.00
2023-10-04T15:38:44.083Z,1.97
2023-10-04T15:41:13.745Z,1.30
2023-10-04T15:43:43.783Z,1.43
2023-10-04T15:46:12.199Z,1.47
2023-10-04T15:48:40.626Z,1.13
2023-10-04T15:51:09.050Z,1.17
2023-10-04T15:53:37.337Z,1.50
2023-10-04T15:56:06.914Z,1.40
2023-10-04T15:58:35.313Z,1.20
2023-10-04T16:01:05.085Z,1.17
2023-10-04T16:03:33.486Z,1.20
2023-10-04T16:06:03.460Z,0.90
2023-10-04T16:08:31.786Z,1.60
2023-10-04T16:11:00.404Z,1.37
2023-10-04T16:13:28.745Z,1.80
2023-10-04T16:15:57.655Z,1.30
2023-10-04T16:18:30.093Z,1.30
2023-10-04T16:20:58.784Z,1.40
2023-10-04T16:23:27.056Z,1.40
2023-10-04T16:25:55.244Z,1.40
2023-10-04T16:28:23.728Z,1.43
2023-10-04T16:30:52.083Z,1.50
2023-10-04T16:33:20.547Z,1.50
2023-10-04T16:35:50.076Z,1.37
2023-10-04T16:38:18.280Z,1.60
2023-10-04T16:40:46.493Z,1.70
2023-10-04T16:43:14.719Z,1.67
2023-10-04T16:45:42.962Z,1.27
2023-10-04T16:48:11.936Z,1.90
2023-10-04T16:50:40.226Z,2.00
2023-10-04T16:53:09.777Z,1.37
2023-10-04T16:55:38.245Z,1.40
2023-10-04T16:58:07.523Z,1.47
2023-10-04T17:00:36.078Z,1.77
2023-10-04T17:03:04.405Z,1.90
2023-10-04T17:05:33.389Z,1.40
2023-10-04T17:08:02.227Z,1.40
2023-10-04T17:10:31.880Z,1.30
2023-10-04T17:13:00.151Z,1.40
2023-10-04T17:15:29.311Z,1.40
2023-10-04T17:17:57.725Z,1.20
2023-10-04T17:20:25.928Z,1.53
2023-10-04T17:22:54.198Z,1.10
2023-10-04T17:25:22.537Z,1.40
2023-10-04T17:27:52.486Z,1.03
2023-10-04T17:30:21.591Z,1.87
2023-10-04T17:32:50.073Z,1.20
2023-10-04T17:35:19.556Z,1.20
2023-10-04T17:37:47.904Z,1.50
2023-10-04T17:40:16.289Z,1.50
2023-10-04T17:42:44.805Z,1.20
2023-10-04T17:45:14.968Z,1.07
2023-10-04T17:47:43.375Z,1.20
2023-10-04T17:50:12.109Z,1.40
2023-10-04T17:52:40.412Z,1.23
2023-10-04T17:55:09.812Z,1.23
2023-10-04T17:57:38.987Z,1.30
2023-10-04T18:00:12.492Z,1.47
2023-10-04T18:02:42.194Z,1.47
2023-10-04T18:05:12.147Z,1.20
2023-10-04T18:07:40.880Z,1.70
2023-10-04T18:10:11.551Z,1.27
2023-10-04T18:12:42.194Z,1.23
2023-10-04T18:15:11.163Z,1.37
2023-10-04T18:17:39.444Z,1.23
2023-10-04T18:20:11.303Z,1.63
2023-10-04T18:22:40.021Z,1.40
2023-10-04T18:25:10.341Z,1.40
2023-10-04T18:27:38.902Z,1.50
2023-10-04T18:30:08.045Z,1.47
2023-10-04T18:32:36.425Z,1.20
2023-10-04T18:35:05.318Z,1.50
2023-10-04T18:37:35.455Z,1.50
2023-10-04T18:40:05.128Z,1.60
2023-10-04T18:42:35.267Z,1.57
2023-10-04T18:45:06.094Z,1.50
2023-10-04T18:47:34.407Z,1.30
2023-10-04T18:50:02.666Z,1.67
2023-10-04T18:52:30.886Z,1.37
2023-10-04T18:55:00.902Z,1.50
2023-10-04T18:57:29.651Z,1.50
2023-10-04T19:00:00.652Z,1.83
2023-10-04T19:02:30.674Z,1.60
2023-10-04T19:05:05.545Z,1.30
2023-10-04T19:07:35.254Z,2.27
2023-10-04T19:10:05.394Z,1.50
2023-10-04T19:12:34.744Z,1.40
2023-10-04T19:15:04.816Z,1.30
2023-10-04T19:17:33.487Z,1.70
2023-10-04T19:20:01.859Z,2.40
2023-10-04T19:22:33.103Z,1.50
2023-10-04T19:25:01.711Z,1.60
2023-10-04T19:27:32.465Z,1.40
2023-10-04T19:30:00.678Z,1.73
2023-10-04T19:32:28.892Z,1.40
2023-10-04T19:34:57.176Z,1.53
2023-10-04T19:37:25.406Z,1.40
2023-10-04T19:39:54.521Z,1.37
2023-10-04T19:42:22.864Z,1.13
2023-10-04T19:44:52.433Z,1.50
2023-10-04T19:47:20.677Z,1.70
2023-10-04T19:49:49.412Z,1.43
2023-10-04T19:52:19.036Z,1.13
2023-10-04T19:54:47.474Z,1.93
2023-10-04T19:57:15.763Z,1.50
2023-10-04T19:59:44.167Z,1.97
2023-10-04T20:02:13.794Z,1.50
2023-10-04T20:04:42.214Z,1.67
2023-10-04T20:07:11.700Z,1.67
2023-10-04T20:09:40.179Z,1.13
2023-10-04T20:12:10.472Z,1.60
2023-10-04T20:14:39.143Z,1.40
2023-10-04T20:17:11.705Z,1.60
2023-10-04T20:19:41.771Z,1.23
2023-10-04T20:22:13.113Z,1.70
2023-10-04T20:24:41.415Z,1.13
2023-10-04T20:27:09.622Z,1.83
2023-10-04T20:29:40.791Z,1.67
2023-10-04T20:32:09.012Z,1.70
2023-10-04T20:34:38.126Z,1.47
2023-10-04T20:37:08.647Z,1.40
2023-10-04T20:39:37.103Z,1.30
2023-10-04T20:42:05.432Z,1.60
2023-10-04T20:44:33.637Z,1.40
2023-10-04T20:47:01.847Z,1.47
2023-10-04T20:49:30.433Z,1.83
2023-10-04T20:51:58.750Z,1.60
2023-10-04T20:54:28.313Z,1.20
2023-10-04T20:56:58.377Z,1.20
2023-10-04T20:59:26.625Z,1.40
2023-10-04T21:01:54.945Z,1.63
2023-10-04T21:04:23.331Z,1.50
2023-10-04T21:06:51.675Z,1.30
2023-10-04T21:09:22.158Z,1.20
2023-10-04T21:11:52.013Z,1.27
2023-10-04T21:14:20.224Z,1.40
2023-10-04T21:16:48.690Z,1.00
2023-10-04T21:19:18.145Z,1.20
2023-10-04T21:21:47.218Z,1.70
2023-10-04T21:24:18.965Z,1.40
2023-10-04T21:26:47.922Z,1.27
2023-10-04T21:29:17.593Z,1.30
2023-10-04T21:31:45.982Z,1.43
2023-10-04T21:34:16.482Z,1.90
2023-10-04T21:36:48.507Z,1.27
2023-10-04T21:39:25.114Z,1.43
2023-10-04T21:41:56.619Z,1.47
2023-10-04T21:44:38.103Z,1.57
2023-10-04T21:47:08.958Z,1.37
2023-10-04T21:49:39.138Z,1.47
2023-10-04T21:52:11.556Z,1.47
2023-10-04T21:54:40.102Z,2.00
2023-10-04T21:57:08.604Z,1.50
2023-10-04T21:59:38.175Z,1.30
2023-10-04T22:02:06.520Z,1.23
2023-10-04T22:04:35.230Z,1.77
2023-10-04T22:07:20.646Z,1.63
2023-10-04T22:09:50.994Z,1.60
2023-10-04T22:12:23.414Z,1.70
2023-10-04T22:14:53.632Z,1.50
2023-10-04T22:17:22.171Z,1.30
2023-10-04T22:19:51.060Z,1.80
2023-10-04T22:22:20.371Z,1.40
2023-10-04T22:25:01.681Z,1.43
2023-10-04T22:27:31.788Z,1.60
2023-10-04T22:30:03.994Z,1.40
2023-10-04T22:32:32.927Z,1.70
2023-10-04T22:35:01.114Z,1.40
2023-10-04T22:37:29.318Z,1.43
2023-10-04T22:39:57.573Z,1.40
2023-10-04T22:42:26.295Z,1.60
2023-10-04T22:44:54.540Z,1.57
2023-10-04T22:47:24.429Z,1.70
2023-10-04T22:49:52.801Z,1.83
2023-10-04T22:52:22.872Z,2.00
2023-10-04T22:54:51.771Z,1.43
2023-10-04T22:57:21.320Z,1.90
2023-10-04T22:59:49.510Z,1.60
2023-10-04T23:02:17.972Z,1.90
2023-10-04T23:04:47.831Z,1.67
2023-10-04T23:07:16.183Z,1.57
2023-10-04T23:09:44.560Z,1.80
2023-10-04T23:12:13.352Z,1.43
2023-10-04T23:14:41.677Z,1.60
2023-10-04T23:17:16.057Z,1.47
2023-10-04T23:19:50.055Z,1.73
2023-10-04T23:22:19.715Z,1.50
2023-10-04T23:24:51.475Z,1.57
2023-10-04T23:27:20.568Z,1.50
2023-10-04T23:29:49.248Z,1.70
2023-10-04T23:32:17.531Z,1.70
2023-10-04T23:34:49.077Z,1.73
2023-10-04T23:37:24.100Z,1.80
2023-10-04T23:39:54.861Z,1.43
2023-10-04T23:42:23.154Z,1.17
2023-10-04T23:44:51.598Z,1.50
2023-10-04T23:47:21.328Z,1.43
2023-10-04T23:49:50.819Z,1.53
2023-10-04T23:52:23.907Z,1.80
2023-10-04T23:54:56.980Z,1.67
2023-10-04T23:57:27.279Z,1.57
2023-10-04T23:59:56.387Z,1.60
